Latest Weather Observations for Casino

IDN60801

Issued at 2:33 pm EST Sunday 24 July 2016 (issued every 30 minutes, with the page automatically refreshed every 10 minutes)

About weather observations | Map of weather stations | Latest weather observations for NSW | Other Formats
Station Details ID: 058208 Name: CASINO AIRPORT AWS Lat: -28.88 Lon: 153.06 Height: 20.9 m
Data from the previous 72 hours. | See also: Recent months at Casino
Date/Time
EST
Temp
°C
App
Temp
°C
Dew
Point
°C
Rel
Hum
%
Delta-T
°C
Wind Press
QNH
hPa
Press
MSL
hPa
Rain since
9am
mm
Dir  Spd
km/h
Gust
km/h
Spd
kts
Gust
kts
24/02:30pm 20.6 17.2 2.0 29 8.6 N 9 15 5 8 1012.9 1012.9 0.0
24/02:00pm 20.3 16.9 1.7 29 8.5 N 9 13 5 7 1013.4 1013.4 0.0
24/01:30pm 19.9 16.3 0.9 28 8.5 NNE 9 15 5 8 1014.2 1014.1 0.0
24/01:00pm 20.7 18.1 3.0 31 8.3 NNW 6 11 3 6 1014.7 1014.6 0.0
24/12:30pm 19.5 16.5 1.9 31 8.0 NW 7 13 4 7 1015.1 1015.0 0.0
24/12:00pm 19.9 17.3 3.2 33 7.8 SW 6 9 3 5 1015.8 1015.8 0.0
24/11:30am 19.7 17.1 3.0 33 7.8 NNW 6 9 3 5 1016.0 1016.0 0.0
24/11:00am 18.5 15.0 1.5 32 7.6 NNW 9 11 5 6 1016.8 1016.8 0.0
24/10:30am 18.0 15.3 3.9 39 6.6 NW 7 15 4 8 1017.2 1017.2 0.0
24/10:00am 16.3 13.5 5.3 48 5.2 WNW 9 13 5 7 1017.3 1017.3 0.0
24/09:30am 15.1 12.5 5.9 54 4.4 WNW 9 13 5 7 1017.3 1017.3 0.0
24/09:00am 13.4 11.0 5.3 58 3.8 WNW 7 11 4 6 1017.5 1017.5 0.0
24/08:30am 12.5 10.0 4.7 59 3.6 WNW 7 9 4 5 1017.2 1017.2 0.0
24/08:00am 11.3 9.4 6.6 73 2.2 NNW 6 7 3 4 1016.6 1016.6 0.0
24/07:30am 10.8 8.5 5.6 70 2.4 WNW 7 9 4 5 1016.8 1016.8 0.0
24/07:00am 10.2 7.3 4.8 69 2.4 WNW 9 11 5 6 1016.3 1016.3 0.0
24/06:30am 10.4 7.4 4.3 66 2.7 W 9 11 5 6 1016.1 1016.1 0.0
24/06:00am 10.9 8.0 4.6 65 2.8 WNW 9 11 5 6 1015.8 1015.8 0.0
24/05:30am 9.6 7.5 5.8 77 1.7 NW 6 9 3 5 1015.6 1015.6 0.0
24/05:00am 9.6 7.8 5.4 75 1.9 W 4 7 2 4 1014.7 1014.6 0.0
24/04:30am 10.1 7.6 4.5 68 2.5 NW 7 9 4 5 1014.4 1014.3 0.0
24/04:00am 11.2 9.4 3.7 60 3.3 NW 2 6 1 3 1014.2 1014.1 0.0
24/03:30am 11.3 8.7 3.1 57 3.6 WNW 6 13 3 7 1014.4 1014.3 0.0
24/03:00am 12.4 9.2 2.8 52 4.2 W 9 13 5 7 1014.7 1014.6 0.0
24/02:30am 12.0 8.8 3.0 54 4.0 WSW 9 11 5 6 1014.6 1014.5 0.0
24/02:00am 12.9 9.6 2.5 49 4.5 W 9 13 5 7 1014.0 1013.9 0.0
24/01:30am 12.2 8.5 2.4 51 4.3 WNW 11 15 6 8 1014.3 1014.2 0.0
24/01:00am 12.0 9.3 2.7 53 4.1 W 6 9 3 5 1014.7 1014.6 0.0
24/12:30am 12.0 8.3 2.2 51 4.2 WNW 11 13 6 7 1014.4 1014.3 0.0
24/12:00am 13.7 10.0 2.3 46 5.0 WNW 11 13 6 7 1014.1 1014.0 0.0
 
Date/Time
EST
Temp
°C
App
Temp
°C
Dew
Point
°C
Rel
Hum
%
Delta-T
°C
Wind Press
QNH
hPa
Press
MSL
hPa
Rain since
9am
mm
Dir  Spd
km/h
Gust
km/h
Spd
kts
Gust
kts
23/11:30pm 15.1 11.3 1.6 40 5.9 W 11 28 6 15 1013.8 1013.7 0.0
23/11:00pm 15.4 10.5 2.2 41 5.9 W 17 26 9 14 1013.4 1013.4 0.0
23/10:30pm 15.2 10.5 3.0 44 5.5 WNW 17 28 9 15 1013.3 1013.3 0.0
23/10:00pm 12.9 10.4 3.6 53 4.2 NW 6 11 3 6 1013.2 1013.2 0.0
23/09:30pm 14.0 10.9 3.8 50 4.6 WNW 9 13 5 7 1012.8 1012.8 0.0
23/09:00pm 15.3 10.8 4.1 47 5.2 NW 17 24 9 13 1012.5 1012.5 0.0
23/08:30pm 15.8 12.1 4.5 47 5.3 WNW 13 20 7 11 1012.3 1012.3 0.0
23/08:00pm 15.6 12.9 3.7 45 5.5 W 7 9 4 5 1012.1 1012.1 0.0
23/07:30pm 17.6 14.0 2.8 37 6.8 WNW 11 19 6 10 1011.4 1011.4 0.0
23/07:00pm 18.1 13.0 2.8 36 7.1 WNW 19 24 10 13 1010.6 1010.6 0.0
23/06:30pm 18.7 14.9 4.1 38 6.9 W 13 20 7 11 1010.3 1010.3 0.0
23/06:00pm 18.7 15.9 3.3 36 7.2 W 7 11 4 6 1009.9 1009.9 0.0
23/05:30pm 20.9 17.7 3.2 31 8.4 WNW 9 13 5 7 1009.0 1009.0 0.0
23/05:00pm 22.4 17.6 2.5 27 9.4 W 17 28 9 15 1008.0 1008.0 0.0
23/04:30pm 23.7 18.4 2.0 24 10.3 W 19 32 10 17 1007.5 1007.5 0.0
23/04:09pm 24.8 17.8 1.7 22 11.0 WNW 28 46 15 25 1007.3 1007.3 0.0
23/04:00pm 25.3 17.6 2.1 22 11.2 WNW 32 46 17 25 1007.2 1007.2 0.0
23/03:30pm 26.3 19.7 4.1 24 11.1 WNW 28 43 15 23 1006.6 1006.6 0.0
23/03:00pm 27.0 20.7 5.9 26 11.0 WNW 28 41 15 22 1006.3 1006.3 0.0
23/02:30pm 27.8 23.2 8.1 29 10.7 WNW 22 33 12 18 1006.0 1006.0 0.0
23/02:00pm 27.9 22.4 9.2 31 10.4 WNW 28 48 15 26 1005.7 1005.7 0.0
23/01:30pm 27.5 22.0 9.3 32 10.0 W 28 50 15 27 1005.7 1005.7 0.0
23/01:00pm 28.1 22.5 10.3 33 10.1 WNW 30 48 16 26 1006.0 1006.0 0.0
23/12:30pm 27.8 21.8 10.1 33 9.9 WNW 32 54 17 29 1006.4 1006.4 0.0
23/12:01pm 27.8 22.5 11.4 36 9.4 WNW 30 48 16 26 1006.4 1006.4 0.0
23/12:00pm 27.5 21.9 11.5 37 9.2 WNW 32 48 17 26 1006.4 1006.4 0.0
23/11:51am 27.4 21.9 10.6 35 9.5 WNW 30 48 16 26 1006.6 1006.6 0.0
23/11:30am 27.8 23.5 12.2 38 9.1 WNW 26 44 14 24 1006.7 1006.7 0.0
23/11:00am 28.0 23.4 12.4 38 9.1 WNW 28 54 15 29 1006.8 1006.8 0.0
23/10:37am 26.5 21.6 11.4 39 8.6 WNW 28 46 15 25 1007.0 1007.0 0.0
23/10:30am 27.2 23.8 12.4 40 8.6 WNW 22 37 12 20 1007.0 1007.0 0.0
23/10:00am 27.6 24.9 13.5 41 8.4 NW 20 32 11 17 1007.0 1007.0 0.0
23/09:30am 27.1 24.4 13.4 42 8.1 NW 20 33 11 18 1007.2 1007.2 0.0
23/09:00am 26.3 23.9 13.8 46 7.4 NW 19 28 10 15 1007.2 1007.2 0.0
23/08:30am 25.6 23.5 15.3 53 6.2 NNW 20 30 11 16 1006.7 1006.7 0.0
23/08:00am 24.5 21.8 15.7 58 5.3 N 24 32 13 17 1006.7 1006.7 0.0
23/07:30am 23.4 21.5 15.7 62 4.6 N 20 28 11 15 1006.9 1006.9 0.0
23/07:00am 22.5 20.7 15.4 64 4.3 NNW 19 24 10 13 1006.9 1006.9 0.0
23/06:30am 22.3 19.5 15.4 65 4.1 NNW 24 30 13 16 1006.5 1006.5 0.0
23/06:00am 22.3 20.3 15.4 65 4.1 NNW 20 26 11 14 1006.3 1006.3 0.0
23/05:30am 22.3 19.5 15.4 65 4.1 NW 24 35 13 19 1006.1 1006.1 0.0
23/05:00am 22.2 19.5 15.5 66 4.0 NW 24 32 13 17 1005.8 1005.8 0.0
23/04:30am 21.7 19.3 15.5 68 3.7 NNW 22 32 12 17 1005.6 1005.6 0.0
23/04:00am 21.0 19.2 15.5 71 3.3 NNW 19 24 10 13 1005.4 1005.4 0.0
23/03:30am 20.5 19.0 15.3 72 3.1 NNW 17 24 9 13 1005.9 1005.9 0.0
23/03:00am 20.6 18.7 15.2 71 3.2 NNW 19 26 10 14 1006.3 1006.3 0.0
23/02:30am 20.9 18.9 15.4 71 3.3 NNW 20 26 11 14 1006.6 1006.6 0.0
23/02:00am 21.0 19.0 15.5 71 3.3 NNW 20 30 11 16 1007.0 1007.0 0.0
23/01:30am 21.6 18.9 15.7 69 3.5 NNW 24 33 13 18 1007.5 1007.5 0.0
23/01:00am 20.9 18.7 15.9 73 3.0 NNW 22 33 12 18 1007.5 1007.5 0.0
23/12:30am 18.9 19.5 15.8 82 1.8 NNE 7 15 4 8 1008.1 1008.1 0.0
23/12:00am 19.4 19.3 15.9 80 2.1 NNW 11 15 6 8 1008.5 1008.5 0.0
 
Date/Time
EST
Temp
°C
App
Temp
°C
Dew
Point
°C
Rel
Hum
%
Delta-T
°C
Wind Press
QNH
hPa
Press
MSL
hPa
Rain since
9am
mm
Dir  Spd
km/h
Gust
km/h
Spd
kts
Gust
kts
22/11:30pm 18.8 18.8 15.3 80 2.1 NW 9 11 5 6 1008.7 1008.7 0.0
22/11:00pm 19.9 19.9 16.2 79 2.2 NNW 11 15 6 8 1009.0 1009.0 0.0
22/10:30pm 19.6 19.8 15.7 78 2.3 N 9 15 5 8 1009.4 1009.4 0.0
22/10:00pm 20.2 19.7 16.0 77 2.5 NNW 13 17 7 9 1009.9 1009.9 0.0
22/09:30pm 20.0 19.4 16.6 81 2.1 NNW 15 19 8 10 1010.0 1010.0 0.0
22/09:00pm 17.8 18.1 15.1 84 1.6 NW 7 11 4 6 1010.1 1010.1 0.0
22/08:30pm 17.7 17.6 15.0 84 1.6 NW 9 9 5 5 1009.8 1009.8 0.0
22/08:00pm 17.3 17.7 14.8 85 1.4 WNW 6 7 3 4 1009.8 1009.8 0.0
22/07:30pm 17.5 18.4 15.1 86 1.4 W 4 7 2 4 1009.9 1009.9 0.0
22/07:00pm 18.2 20.0 15.6 85 1.5 CALM 0 0 0 0 1009.7 1009.7 0.0
22/06:30pm 18.7 20.1 15.4 81 1.9 NW 2 7 1 4 1009.8 1009.8 0.0
22/06:00pm 20.4 22.2 15.6 74 2.9 CALM 0 0 0 0 1009.7 1009.7 0.0
22/05:30pm 21.6 23.0 15.4 68 3.7 NNW 2 6 1 3 1009.6 1009.6 0.0
22/05:00pm 24.2 24.5 14.9 56 5.6 NNW 7 11 4 6 1009.2 1009.2 0.0
22/04:30pm 26.4 26.1 15.4 50 6.7 NW 11 15 6 8 1009.2 1009.2 0.0
22/04:00pm 27.1 25.4 14.8 47 7.4 NW 17 20 9 11 1009.3 1009.3 0.0
22/03:30pm 27.4 25.3 14.8 46 7.6 NW 19 26 10 14 1009.4 1009.4 0.0
22/03:00pm 27.9 26.5 15.5 46 7.6 NW 17 30 9 16 1009.6 1009.6 0.0
22/02:30pm 28.1 25.8 14.7 44 8.1 NW 20 32 11 17 1009.7 1009.7 0.0
22/02:00pm 27.9 26.9 15.5 46 7.6 NW 15 26 8 14 1010.2 1010.2 0.0
22/01:30pm 27.2 25.6 14.9 47 7.4 NW 17 28 9 15 1010.7 1010.7 0.0
22/01:00pm 27.0 25.2 14.4 46 7.6 NW 17 26 9 14 1011.4 1011.4 0.0
22/12:30pm 26.2 26.3 15.6 52 6.5 NW 9 15 5 8 1012.1 1012.1 0.0
22/12:00pm 26.0 25.0 15.7 53 6.3 NW 15 22 8 12 1012.9 1012.9 0.0
22/11:30am 24.8 24.0 15.1 54 5.8 WNW 13 17 7 9 1013.7 1013.6 0.0
22/11:00am 25.2 25.0 15.8 56 5.7 NNW 11 19 6 10 1014.2 1014.1 0.0
22/10:30am 24.5 24.7 15.7 58 5.3 NNW 9 13 5 7 1014.7 1014.6 0.0
22/10:00am 23.1 22.8 15.4 62 4.6 NW 11 15 6 8 1015.3 1015.2 0.0
22/09:30am 21.2 21.6 16.4 74 2.9 WNW 9 11 5 6 1015.7 1015.7 0.0
22/09:00am 19.7 20.1 16.3 81 2.0 W 9 15 5 8 1015.8 1015.8 0.0
22/08:30am 18.2 18.0 15.6 85 1.5 NW 11 15 6 8 1015.7 1015.7 0.0
22/08:00am 17.9 18.0 16.4 91 0.9 NW 11 17 6 9 1015.6 1015.6 0.0
22/07:30am 16.9 17.2 15.9 94 0.6 NW 9 15 5 8 1015.3 1015.2 0.0
22/07:00am 16.0 15.9 15.0 94 0.6 NNW 9 11 5 6 1015.3 1015.2 0.0
22/06:30am 14.3 13.6 13.2 93 0.6 NNW 9 11 5 6 1015.3 1015.2 0.0
22/06:00am 14.2 13.8 12.9 92 0.7 NNW 7 9 4 5 1015.3 1015.2 0.0
22/05:30am 14.8 14.6 13.7 93 0.6 NW 7 9 4 5 1015.0 1014.9 0.0
22/05:00am 15.0 14.5 13.9 93 0.6 NW 9 9 5 5 1015.0 1014.9 0.0
22/04:30am 15.8 16.0 14.7 93 0.6 WNW 7 11 4 6 1015.0 1014.9 0.0
22/04:00am 15.9 15.7 14.8 93 0.6 WNW 9 13 5 7 1015.0 1014.9 0.0
22/03:30am 15.9 15.7 14.8 93 0.6 WNW 9 11 5 6 1015.4 1015.3 0.0
22/03:00am 15.4 15.4 14.1 92 0.7 WNW 7 7 4 4 1015.7 1015.7 0.0
22/02:30am 15.9 15.9 14.3 90 0.9 NW 7 9 4 5 1016.1 1016.1 0.0
22/02:00am 16.9 17.4 15.1 89 1.0 NW 6 7 3 4 1016.5 1016.5 0.0
22/01:30am 17.3 18.0 15.5 89 1.1 NW 6 7 3 4 1016.5 1016.5 0.0
22/01:00am 17.2 18.2 15.4 89 1.0 N 4 9 2 5 1016.9 1016.9 0.0
22/12:30am 17.5 19.3 15.5 88 1.2 CALM 0 0 0 0 1017.3 1017.3 0.0
22/12:00am 17.4 19.2 15.4 88 1.2 CALM 0 0 0 0 1017.6 1017.6 0.0
 
Date/Time
EST
Temp
°C
App
Temp
°C
Dew
Point
°C
Rel
Hum
%
Delta-T
°C
Wind Press
QNH
hPa
Press
MSL
hPa
Rain since
9am
mm
Dir  Spd
km/h
Gust
km/h
Spd
kts
Gust
kts
21/11:30pm 17.6 19.4 15.6 88 1.2 CALM 0 0 0 0 1017.7 1017.7 0.0
21/11:00pm 17.7 19.5 15.5 87 1.3 CALM 0 0 0 0 1017.6 1017.6 0.0
21/10:30pm 17.9 19.7 15.5 86 1.4 CALM 0 0 0 0 1017.8 1017.8 0.0
21/10:00pm 18.1 20.0 15.7 86 1.4 CALM 0 0 0 0 1017.7 1017.7 0.0
21/09:30pm 18.1 20.0 15.7 86 1.4 CALM 0 0 0 0 1017.5 1017.5 0.0
21/09:00pm 18.0 19.5 15.6 86 1.4 SE 2 7 1 4 1017.3 1017.3 0.0
21/08:30pm 18.0 18.7 15.6 86 1.4 ESE 6 7 3 4 1017.1 1017.1 0.0
21/08:00pm 18.2 18.3 15.5 84 1.6 E 9 11 5 6 1017.0 1017.0 0.0
21/07:30pm 18.4 18.6 15.8 85 1.5 ESE 9 13 5 7 1016.9 1016.9 0.0
21/07:00pm 18.6 18.9 16.0 85 1.5 ESE 9 11 5 6 1016.9 1016.9 0.0
21/06:30pm 18.7 19.4 16.1 85 1.5 SE 7 9 4 5 1016.7 1016.7 0.0
21/06:00pm 18.8 19.1 15.9 83 1.7 ESE 9 11 5 6 1016.3 1016.3 0.0
21/05:30pm 19.3 19.2 16.0 81 2.0 SE 11 13 6 7 1016.1 1016.1 0.0
21/05:00pm 19.8 20.1 16.1 79 2.2 SE 9 11 5 6 1016.0 1016.0 0.0
21/04:30pm 20.5 21.4 16.5 78 2.4 SSE 7 11 4 6 1015.8 1015.8 0.0
21/04:00pm 20.7 20.3 16.3 76 2.6 ESE 13 17 7 9 1015.4 1015.3 0.0
21/03:30pm 21.0 20.8 16.6 76 2.7 ESE 13 17 7 9 1015.4 1015.3 0.0
21/03:00pm 20.8 20.4 16.2 75 2.8 SE 13 17 7 9 1015.8 1015.8 0.0

Other Formats:

Comma delimited format used in spreadsheet applications
http://www.bom.gov.au/fwo/IDN60801/IDN60801.94573.axf

JavaScript Object Notation format (JSON) in row-major order
http://www.bom.gov.au/fwo/IDN60801/IDN60801.94573.json